createdAt,value
2017-03-22T00:00:02.265Z,49.84
2017-03-22T00:00:35.186Z,50.32
2017-03-22T00:01:07.435Z,50.32
2017-03-22T00:01:39.708Z,50.32
2017-03-22T00:02:11.972Z,50.12
2017-03-22T00:02:44.284Z,50.51
2017-03-22T00:03:16.599Z,50.32
2017-03-22T00:03:48.916Z,50.41
2017-03-22T00:04:21.229Z,50.03
2017-03-22T00:04:53.546Z,50.41
2017-03-22T00:05:25.862Z,50.03
2017-03-22T00:05:58.189Z,50.22
2017-03-22T00:06:30.535Z,50.41
2017-03-22T00:07:02.870Z,50.41
2017-03-22T00:07:35.181Z,49.93
2017-03-22T00:08:07.491Z,50.41
2017-03-22T00:08:39.818Z,50.22
2017-03-22T00:09:12.115Z,49.93
2017-03-22T00:09:44.510Z,49.93
2017-03-22T00:10:16.799Z,50.12
2017-03-22T00:10:49.113Z,50.22
2017-03-22T00:11:21.420Z,50.32
2017-03-22T00:11:53.720Z,50.22
2017-03-22T00:12:25.961Z,50.51
2017-03-22T00:12:59.210Z,50.12
2017-03-22T00:13:31.469Z,50.12
2017-03-22T00:14:03.740Z,50.41
2017-03-22T00:14:36.000Z,50.32
2017-03-22T00:15:08.256Z,50.32
2017-03-22T00:15:40.489Z,50.32
2017-03-22T00:16:12.842Z,50.12
2017-03-22T00:16:45.100Z,50.32
2017-03-22T00:17:17.411Z,50.41
2017-03-22T00:17:49.696Z,50.41
2017-03-22T00:18:22.726Z,50.03
2017-03-22T00:18:55.634Z,50.03
2017-03-22T00:19:27.906Z,49.93
2017-03-22T00:20:00.202Z,50.32
2017-03-22T00:20:33.238Z,50.41
2017-03-22T00:21:05.498Z,50.03
2017-03-22T00:21:37.771Z,50.51
2017-03-22T00:22:10.040Z,50.12
2017-03-22T00:22:42.292Z,50.32
2017-03-22T00:23:15.235Z,50.12
2017-03-22T00:23:47.485Z,50.03
2017-03-22T00:24:20.272Z,50.41
2017-03-22T00:24:52.527Z,50.32
2017-03-22T00:25:24.875Z,50.03
2017-03-22T00:25:57.134Z,49.93
2017-03-22T00:26:29.424Z,50.03
2017-03-22T00:27:02.291Z,49.93
2017-03-22T00:27:34.565Z,50.41
2017-03-22T00:28:06.827Z,50.41
2017-03-22T00:28:39.085Z,50.12
2017-03-22T00:29:12.284Z,50.12
2017-03-22T00:29:44.518Z,50.22
2017-03-22T00:30:16.772Z,50.03
2017-03-22T00:30:49.032Z,50.41
2017-03-22T00:31:21.286Z,49.93
2017-03-22T00:31:53.556Z,50.03
2017-03-22T00:32:25.877Z,50.12
2017-03-22T00:32:58.182Z,50.03
2017-03-22T00:33:30.495Z,50.03
2017-03-22T00:34:02.810Z,50.12
2017-03-22T00:34:35.128Z,50.32
2017-03-22T00:35:07.430Z,50.03
2017-03-22T00:35:39.723Z,50.32
2017-03-22T00:36:12.031Z,50.41
2017-03-22T00:36:44.328Z,50.03
2017-03-22T00:37:16.664Z,49.93
2017-03-22T00:37:48.986Z,50.03
2017-03-22T00:38:21.314Z,50.12
2017-03-22T00:38:53.624Z,50.03
2017-03-22T00:39:25.946Z,50.22
2017-03-22T00:39:58.271Z,50.51
2017-03-22T00:40:30.592Z,50.03
2017-03-22T00:41:02.898Z,50.03
2017-03-22T00:41:35.215Z,49.93
2017-03-22T00:42:07.528Z,50.03
2017-03-22T00:42:39.832Z,50.22
2017-03-22T00:43:12.152Z,50.32
2017-03-22T00:43:44.473Z,50.22
2017-03-22T00:44:16.778Z,50.03
2017-03-22T00:44:49.089Z,49.93
2017-03-22T00:45:21.403Z,50.03
2017-03-22T00:45:53.719Z,50.03
2017-03-22T00:46:26.018Z,50.22
2017-03-22T00:46:58.323Z,50.12
2017-03-22T00:47:30.619Z,50.03
2017-03-22T00:48:02.939Z,50.22
2017-03-22T00:48:35.246Z,50.32
2017-03-22T00:49:07.577Z,50.03
2017-03-22T00:49:39.909Z,50.03
2017-03-22T00:50:12.211Z,50.32
2017-03-22T00:50:44.500Z,50.22
2017-03-22T00:51:16.790Z,50.22
2017-03-22T00:51:49.097Z,49.93
2017-03-22T00:52:21.399Z,50.12
2017-03-22T00:52:53.727Z,50.22
2017-03-22T00:53:26.059Z,50.32
2017-03-22T00:53:58.387Z,50.03
2017-03-22T00:54:30.707Z,50.32
2017-03-22T00:55:03.010Z,50.22
2017-03-22T00:55:35.334Z,50.12
2017-03-22T00:56:07.649Z,49.93
2017-03-22T00:56:40.001Z,49.84
2017-03-22T00:57:12.293Z,50.22
2017-03-22T00:57:44.597Z,50.22
2017-03-22T00:58:16.928Z,50.12
2017-03-22T00:58:49.246Z,49.93
2017-03-22T00:59:21.554Z,50.12
2017-03-22T00:59:53.857Z,50.22
2017-03-22T01:00:26.164Z,50.12
2017-03-22T01:00:58.471Z,49.93
2017-03-22T01:01:30.784Z,50.32
2017-03-22T01:02:03.081Z,50.22
2017-03-22T01:02:35.346Z,49.84
2017-03-22T01:03:07.654Z,50.22
2017-03-22T01:03:40.036Z,50.32
2017-03-22T01:04:12.298Z,49.93
2017-03-22T01:04:44.562Z,50.22
2017-03-22T01:05:16.816Z,50.41
2017-03-22T01:05:49.095Z,50.12
2017-03-22T01:06:21.472Z,50.12
2017-03-22T01:06:53.738Z,49.84
2017-03-22T01:07:25.985Z,50.32
2017-03-22T01:07:58.797Z,49.93
2017-03-22T01:08:31.125Z,50.12
2017-03-22T01:09:03.387Z,50.22
2017-03-22T01:09:35.646Z,49.84
2017-03-22T01:10:07.905Z,50.03
2017-03-22T01:10:40.169Z,49.84
2017-03-22T01:11:12.420Z,50.12
2017-03-22T01:11:44.688Z,50.12
2017-03-22T01:12:17.672Z,50.22
2017-03-22T01:12:49.992Z,50.22
2017-03-22T01:13:22.301Z,50.22
2017-03-22T01:13:54.607Z,50.22
2017-03-22T01:14:26.946Z,50.12
2017-03-22T01:14:59.266Z,50.03
2017-03-22T01:15:31.589Z,50.03
2017-03-22T01:16:03.883Z,50.12
2017-03-22T01:16:36.185Z,50.22
2017-03-22T01:17:08.513Z,50.22
2017-03-22T01:17:40.805Z,50.03
2017-03-22T01:18:13.124Z,50.03
2017-03-22T01:18:45.445Z,50.12
2017-03-22T01:19:17.775Z,50.03
2017-03-22T01:19:50.090Z,50.22
2017-03-22T01:20:22.456Z,50.22
2017-03-22T01:20:54.762Z,50.12
2017-03-22T01:21:27.078Z,50.03
2017-03-22T01:21:59.374Z,50.03
2017-03-22T01:22:31.635Z,49.93
2017-03-22T01:23:03.880Z,50.03
2017-03-22T01:23:36.143Z,50.12
2017-03-22T01:24:08.401Z,50.03
2017-03-22T01:24:41.146Z,49.93
2017-03-22T01:25:13.401Z,50.12
2017-03-22T01:25:45.664Z,50.32
2017-03-22T01:26:17.926Z,49.93
2017-03-22T01:26:50.194Z,49.93
2017-03-22T01:27:22.448Z,50.22
2017-03-22T01:27:54.705Z,49.93
2017-03-22T01:28:26.967Z,50.32
2017-03-22T01:28:59.225Z,50.12
2017-03-22T01:29:31.480Z,49.84
2017-03-22T01:30:03.745Z,50.32
2017-03-22T01:30:36.012Z,50.22
2017-03-22T01:31:08.268Z,50.22
2017-03-22T01:31:40.518Z,50.03
2017-03-22T01:32:12.787Z,49.84
2017-03-22T01:32:45.115Z,50.12
2017-03-22T01:33:17.426Z,49.84
2017-03-22T01:33:49.741Z,50.03
2017-03-22T01:34:22.093Z,50.12
2017-03-22T01:34:54.410Z,49.84
2017-03-22T01:35:26.712Z,50.12
2017-03-22T01:35:59.030Z,50.12
2017-03-22T01:36:31.347Z,50.12
2017-03-22T01:37:03.647Z,50.22
2017-03-22T01:37:35.950Z,50.03
2017-03-22T01:38:08.261Z,49.93
2017-03-22T01:38:40.575Z,49.84
2017-03-22T01:39:12.902Z,50.03
2017-03-22T01:39:45.212Z,49.74
2017-03-22T01:40:17.514Z,49.84
2017-03-22T01:40:49.811Z,49.93
2017-03-22T01:41:22.110Z,50.12
2017-03-22T01:41:54.413Z,50.03
2017-03-22T01:42:26.720Z,49.93
2017-03-22T01:42:59.017Z,49.93
2017-03-22T01:43:31.325Z,49.93
2017-03-22T01:44:03.641Z,50.22
2017-03-22T01:44:36.000Z,50.12
2017-03-22T01:45:08.310Z,50.12
2017-03-22T01:45:40.624Z,50.03
2017-03-22T01:46:12.917Z,50.03
2017-03-22T01:46:45.209Z,49.93
2017-03-22T01:47:17.513Z,50.03
2017-03-22T01:47:49.852Z,49.84
2017-03-22T01:48:22.172Z,49.93
2017-03-22T01:48:54.491Z,50.03
2017-03-22T01:49:26.795Z,50.12
2017-03-22T01:49:59.107Z,50.03
2017-03-22T01:50:31.428Z,49.74
2017-03-22T01:51:03.764Z,50.03
2017-03-22T01:51:36.096Z,49.74
2017-03-22T01:52:08.420Z,49.74
2017-03-22T01:52:40.723Z,49.65
2017-03-22T01:53:13.039Z,49.74
2017-03-22T01:53:45.361Z,50.03
2017-03-22T01:54:17.669Z,50.03
2017-03-22T01:54:49.996Z,50.12
2017-03-22T01:55:22.303Z,50.03
2017-03-22T01:55:54.619Z,50.03
2017-03-22T01:56:26.962Z,50.03
2017-03-22T01:56:59.259Z,49.65
2017-03-22T01:57:31.556Z,49.65
2017-03-22T01:58:03.868Z,50.03
2017-03-22T01:58:36.191Z,50.03
2017-03-22T01:59:08.543Z,49.84
2017-03-22T01:59:40.848Z,49.84
2017-03-22T02:00:13.156Z,49.93
2017-03-22T02:00:45.457Z,50.22
2017-03-22T02:01:17.765Z,49.93
2017-03-22T02:01:50.067Z,49.93
2017-03-22T02:02:22.371Z,50.12
2017-03-22T02:02:54.672Z,50.03
2017-03-22T02:03:26.993Z,49.93
2017-03-22T02:03:59.321Z,50.03
2017-03-22T02:04:31.645Z,49.93
2017-03-22T02:05:03.945Z,49.74
2017-03-22T02:05:36.261Z,50.12
2017-03-22T02:06:08.578Z,49.74
2017-03-22T02:06:40.876Z,50.12
2017-03-22T02:07:13.178Z,49.84
2017-03-22T02:07:45.480Z,50.12
2017-03-22T02:08:17.793Z,50.12
2017-03-22T02:08:50.116Z,49.84
2017-03-22T02:09:22.434Z,50.12
2017-03-22T02:09:54.746Z,50.03
2017-03-22T02:10:27.083Z,49.93
2017-03-22T02:10:59.400Z,50.12
2017-03-22T02:11:31.711Z,49.84
2017-03-22T02:12:04.025Z,50.03
2017-03-22T02:12:36.277Z,50.03
2017-03-22T02:13:09.840Z,50.22
2017-03-22T02:13:42.118Z,49.93
2017-03-22T02:14:15.258Z,49.65
2017-03-22T02:14:47.544Z,50.12
2017-03-22T02:15:19.780Z,50.03
2017-03-22T02:15:52.043Z,50.03
2017-03-22T02:16:24.297Z,50.12
2017-03-22T02:16:56.560Z,50.12
2017-03-22T02:17:28.836Z,50.12
2017-03-22T02:18:01.729Z,50.03
2017-03-22T02:18:33.995Z,50.03
2017-03-22T02:19:06.270Z,50.22
2017-03-22T02:19:38.530Z,50.12
2017-03-22T02:20:10.794Z,49.84
2017-03-22T02:20:43.670Z,49.74
2017-03-22T02:21:15.928Z,50.03
2017-03-22T02:21:48.201Z,49.93
2017-03-22T02:22:20.524Z,50.12
2017-03-22T02:22:52.836Z,50.12
2017-03-22T02:23:25.163Z,49.93
2017-03-22T02:23:57.506Z,50.03
2017-03-22T02:24:29.807Z,49.84
2017-03-22T02:25:02.109Z,49.93
2017-03-22T02:25:34.439Z,50.22
2017-03-22T02:26:06.728Z,50.03
2017-03-22T02:26:39.030Z,50.12
2017-03-22T02:27:11.339Z,49.84
2017-03-22T02:27:43.641Z,49.84
2017-03-22T02:28:15.951Z,49.45
2017-03-22T02:28:48.254Z,50.22
2017-03-22T02:29:20.576Z,49.65
2017-03-22T02:29:52.894Z,50.22
2017-03-22T02:30:25.207Z,50.03
2017-03-22T02:30:57.500Z,49.55
2017-03-22T02:31:29.790Z,49.84
2017-03-22T02:32:02.097Z,50.03
2017-03-22T02:32:34.418Z,49.84
2017-03-22T02:33:06.732Z,49.74
2017-03-22T02:33:39.035Z,49.84
2017-03-22T02:34:11.349Z,50.12
2017-03-22T02:34:43.696Z,49.84
2017-03-22T02:35:16.008Z,49.84
2017-03-22T02:35:48.302Z,49.65
2017-03-22T02:36:20.601Z,49.84
2017-03-22T02:36:52.905Z,49.84
2017-03-22T02:37:25.215Z,49.84
2017-03-22T02:37:57.567Z,49.84
2017-03-22T02:38:29.887Z,49.93
2017-03-22T02:39:02.208Z,49.93
2017-03-22T02:39:34.533Z,49.84
2017-03-22T02:40:06.831Z,49.93
2017-03-22T02:40:39.128Z,49.84
2017-03-22T02:41:11.445Z,49.84
2017-03-22T02:41:43.767Z,49.65
2017-03-22T02:42:16.073Z,49.84
2017-03-22T02:42:48.380Z,49.84
2017-03-22T02:43:20.698Z,49.84
2017-03-22T02:43:53.017Z,50.41
2017-03-22T02:44:25.337Z,49.65
2017-03-22T02:44:57.669Z,49.93
2017-03-22T02:45:29.988Z,49.74
2017-03-22T02:46:02.299Z,50.32
2017-03-22T02:46:34.627Z,49.55
2017-03-22T02:47:06.941Z,49.84
2017-03-22T02:47:39.245Z,49.93
2017-03-22T02:48:11.568Z,49.84
2017-03-22T02:48:43.873Z,49.74
2017-03-22T02:49:16.182Z,49.65
2017-03-22T02:49:48.519Z,49.84
2017-03-22T02:50:20.838Z,49.93
2017-03-22T02:50:53.155Z,49.74
2017-03-22T02:51:25.461Z,49.65
2017-03-22T02:51:57.765Z,49.93
2017-03-22T02:52:30.068Z,49.93
2017-03-22T02:53:02.382Z,49.74
2017-03-22T02:53:34.679Z,49.65
2017-03-22T02:54:06.979Z,49.93
2017-03-22T02:54:39.296Z,49.65
2017-03-22T02:55:11.595Z,49.74
2017-03-22T02:55:43.917Z,49.74
2017-03-22T02:56:16.244Z,49.84
2017-03-22T02:56:48.558Z,49.65
2017-03-22T02:57:20.857Z,49.84
2017-03-22T02:57:53.168Z,49.84
2017-03-22T02:58:25.488Z,49.84
2017-03-22T02:58:57.810Z,49.74
2017-03-22T02:59:30.109Z,49.84
2017-03-22T03:00:02.431Z,49.55
2017-03-22T03:00:34.734Z,49.84
2017-03-22T03:01:07.024Z,49.84
2017-03-22T03:01:39.324Z,49.84
2017-03-22T03:02:11.633Z,49.84
2017-03-22T03:02:43.952Z,49.74
2017-03-22T03:03:16.278Z,49.65
2017-03-22T03:03:48.640Z,49.84
2017-03-22T03:04:20.972Z,49.84
2017-03-22T03:04:53.288Z,49.93
2017-03-22T03:05:25.622Z,49.65
2017-03-22T03:05:57.935Z,49.74
2017-03-22T03:06:30.247Z,49.55
2017-03-22T03:07:02.551Z,49.74
2017-03-22T03:07:34.868Z,49.74
2017-03-22T03:08:07.175Z,49.93
2017-03-22T03:08:39.499Z,49.55
2017-03-22T03:09:11.816Z,49.93
2017-03-22T03:09:44.113Z,49.84
2017-03-22T03:10:16.413Z,49.84
2017-03-22T03:10:48.714Z,49.74
2017-03-22T03:11:21.007Z,49.74
2017-03-22T03:11:53.286Z,49.74
2017-03-22T03:12:25.549Z,50.03
2017-03-22T03:12:57.799Z,49.74
2017-03-22T03:13:30.070Z,49.74
2017-03-22T03:14:02.335Z,49.55
2017-03-22T03:14:34.596Z,49.93
2017-03-22T03:15:06.885Z,50.03
2017-03-22T03:15:39.142Z,49.74
2017-03-22T03:16:11.395Z,49.84
2017-03-22T03:16:43.664Z,50.03
2017-03-22T03:17:15.922Z,49.84
2017-03-22T03:17:48.195Z,50.03
2017-03-22T03:18:20.457Z,49.45
2017-03-22T03:18:52.730Z,49.36
2017-03-22T03:19:25.010Z,50.03
2017-03-22T03:19:57.264Z,49.36
2017-03-22T03:20:29.540Z,49.55
2017-03-22T03:21:01.801Z,49.93
2017-03-22T03:21:34.090Z,49.74
2017-03-22T03:22:06.342Z,49.74
2017-03-22T03:22:38.644Z,49.65
2017-03-22T03:23:10.955Z,50.22
2017-03-22T03:23:43.285Z,50.22
2017-03-22T03:24:15.609Z,50.12
2017-03-22T03:24:47.918Z,49.36
2017-03-22T03:25:20.213Z,49.84
2017-03-22T03:25:52.523Z,49.84
2017-03-22T03:26:24.817Z,49.65
2017-03-22T03:26:57.121Z,49.96
2017-03-22T03:27:29.431Z,49.76
2017-03-22T03:28:01.746Z,50.05
2017-03-22T03:28:34.071Z,49.96
2017-03-22T03:29:06.395Z,49.96
2017-03-22T03:29:38.713Z,49.86
2017-03-22T03:30:11.017Z,49.67
2017-03-22T03:30:43.324Z,49.76
2017-03-22T03:31:15.624Z,49.67
2017-03-22T03:31:47.929Z,49.38
2017-03-22T03:32:20.236Z,49.38
2017-03-22T03:32:52.553Z,49.38
2017-03-22T03:33:24.856Z,49.67
2017-03-22T03:33:57.167Z,49.67
2017-03-22T03:34:29.487Z,49.57
2017-03-22T03:35:01.795Z,49.76
2017-03-22T03:35:34.118Z,49.67
2017-03-22T03:36:06.416Z,49.67
2017-03-22T03:36:38.747Z,49.76
2017-03-22T03:37:11.061Z,49.48
2017-03-22T03:37:43.384Z,49.48
2017-03-22T03:38:15.713Z,49.57
2017-03-22T03:38:48.040Z,49.57
2017-03-22T03:39:20.364Z,49.76
2017-03-22T03:39:52.675Z,49.57
2017-03-22T03:40:24.986Z,49.67
2017-03-22T03:40:57.280Z,49.38
2017-03-22T03:41:29.588Z,49.48
2017-03-22T03:42:01.907Z,49.29
2017-03-22T03:42:34.216Z,49.76
2017-03-22T03:43:06.533Z,49.67
2017-03-22T03:43:38.859Z,49.38
2017-03-22T03:44:11.175Z,49.48
2017-03-22T03:44:43.480Z,49.86
2017-03-22T03:45:15.790Z,49.29
2017-03-22T03:45:48.103Z,49.57
2017-03-22T03:46:20.421Z,49.41
2017-03-22T03:46:52.757Z,49.48
2017-03-22T03:47:25.086Z,49.48
2017-03-22T03:47:57.407Z,49.41
2017-03-22T03:48:29.742Z,49.31
2017-03-22T03:49:02.076Z,49.48
2017-03-22T03:49:34.377Z,49.21
2017-03-22T03:50:06.676Z,49.21
2017-03-22T03:50:38.983Z,49.69
2017-03-22T03:51:11.298Z,49.5
2017-03-22T03:51:43.618Z,49.41
2017-03-22T03:52:15.913Z,49.31
2017-03-22T03:52:48.220Z,49.6
2017-03-22T03:53:20.595Z,49.31
2017-03-22T03:53:52.917Z,49.12
2017-03-22T03:54:25.227Z,49.31
2017-03-22T03:54:57.558Z,49.41
2017-03-22T03:55:29.880Z,49.21
2017-03-22T03:56:02.205Z,49.41
2017-03-22T03:56:34.510Z,49.31
2017-03-22T03:57:06.821Z,49.12
2017-03-22T03:57:39.127Z,49.41
2017-03-22T03:58:11.442Z,49.5
2017-03-22T03:58:43.758Z,49.5
2017-03-22T03:59:16.066Z,49.5
2017-03-22T03:59:48.412Z,49.21
2017-03-22T04:00:20.718Z,49.31
2017-03-22T04:00:53.018Z,49.21
2017-03-22T04:01:25.319Z,49.5
2017-03-22T04:01:57.616Z,49.31
2017-03-22T04:02:29.876Z,49.5
2017-03-22T04:03:02.134Z,49.41
2017-03-22T04:03:34.398Z,49.12
2017-03-22T04:04:06.652Z,49.6
2017-03-22T04:04:38.927Z,49.41
2017-03-22T04:05:11.287Z,49.12
2017-03-22T04:05:43.561Z,49.5
2017-03-22T04:06:15.816Z,49.41
2017-03-22T04:06:48.069Z,49.5
2017-03-22T04:07:20.311Z,49.5
2017-03-22T04:07:52.575Z,49.12
2017-03-22T04:08:25.739Z,49.5
2017-03-22T04:08:58.007Z,49.5
2017-03-22T04:09:30.252Z,49.12
2017-03-22T04:10:03.274Z,49.02
2017-03-22T04:10:35.558Z,49.5
2017-03-22T04:11:07.805Z,49.02
2017-03-22T04:11:40.078Z,49.12
2017-03-22T04:12:12.345Z,49.5
2017-03-22T04:12:44.669Z,49.21
2017-03-22T04:13:16.997Z,49.21
2017-03-22T04:13:49.328Z,49.02
2017-03-22T04:14:21.633Z,49.02
2017-03-22T04:14:53.965Z,49.21
2017-03-22T04:15:26.283Z,49.21
2017-03-22T04:15:58.584Z,49.12
2017-03-22T04:16:30.884Z,49.12
2017-03-22T04:17:03.217Z,48.93
2017-03-22T04:17:35.523Z,49.21
2017-03-22T04:18:07.837Z,49.21
2017-03-22T04:18:40.166Z,49.02
2017-03-22T04:19:12.499Z,49.21
2017-03-22T04:19:44.834Z,49.12
2017-03-22T04:20:17.144Z,49.21
2017-03-22T04:20:49.447Z,49.21
2017-03-22T04:21:21.755Z,48.93
2017-03-22T04:21:54.040Z,49.02
2017-03-22T04:22:26.297Z,48.93
2017-03-22T04:22:58.551Z,49.31
2017-03-22T04:23:30.827Z,48.93
2017-03-22T04:24:03.083Z,49.21
2017-03-22T04:24:35.359Z,49.12
2017-03-22T04:25:07.615Z,49.31
2017-03-22T04:25:39.874Z,49.12
2017-03-22T04:26:12.871Z,49.02
2017-03-22T04:26:45.126Z,49.12
2017-03-22T04:27:17.393Z,49.31
2017-03-22T04:27:50.382Z,49.21
2017-03-22T04:28:22.657Z,49.41
2017-03-22T04:28:54.921Z,49.12
2017-03-22T04:29:27.160Z,49.41
2017-03-22T04:29:59.434Z,49.02
2017-03-22T04:30:31.704Z,49.02
2017-03-22T04:31:03.958Z,49.02
2017-03-22T04:31:36.219Z,49.12
2017-03-22T04:32:08.482Z,49.31
2017-03-22T04:32:40.749Z,49.31
2017-03-22T04:33:13.022Z,49.02
2017-03-22T04:33:45.922Z,49.31
2017-03-22T04:34:18.171Z,49.12
2017-03-22T04:34:50.437Z,49.21
2017-03-22T04:35:22.688Z,49.02
2017-03-22T04:35:54.952Z,49.31
2017-03-22T04:36:27.250Z,48.93
2017-03-22T04:36:59.513Z,49.21
2017-03-22T04:37:31.788Z,49.31
2017-03-22T04:38:04.056Z,49.21
2017-03-22T04:38:36.337Z,49.21
2017-03-22T04:39:09.248Z,49.19
2017-03-22T04:39:41.494Z,48.93
2017-03-22T04:40:13.788Z,49.31
2017-03-22T04:40:46.038Z,49.31
2017-03-22T04:41:18.311Z,49.31
2017-03-22T04:41:50.582Z,49.38
2017-03-22T04:42:23.887Z,49.1
2017-03-22T04:42:57.251Z,48.9
2017-03-22T04:43:29.572Z,49.31
2017-03-22T04:44:01.893Z,49.41
2017-03-22T04:44:34.212Z,49.29
2017-03-22T04:45:06.501Z,49.02
2017-03-22T04:45:38.798Z,48.83
2017-03-22T04:46:11.105Z,49.19
2017-03-22T04:46:43.419Z,49.31
2017-03-22T04:47:15.725Z,49.19
2017-03-22T04:47:48.036Z,49.19
2017-03-22T04:48:20.342Z,49.57
2017-03-22T04:48:52.665Z,49.48
2017-03-22T04:49:24.968Z,48.9
2017-03-22T04:49:57.268Z,48.9
2017-03-22T04:50:29.596Z,49.29
2017-03-22T04:51:01.904Z,49.48
2017-03-22T04:51:34.196Z,48.9
2017-03-22T04:52:06.480Z,49.48
2017-03-22T04:52:38.743Z,49.19
2017-03-22T04:53:11.014Z,49.19
2017-03-22T04:53:43.881Z,49
2017-03-22T04:54:16.152Z,49.19
2017-03-22T04:54:48.427Z,49.19
2017-03-22T04:55:20.685Z,49.48
2017-03-22T04:55:52.938Z,48.9
2017-03-22T04:56:25.249Z,49.48
2017-03-22T04:56:57.527Z,49.19
2017-03-22T04:57:29.792Z,49.19
2017-03-22T04:58:02.087Z,49.48
2017-03-22T04:58:34.351Z,48.9
2017-03-22T04:59:06.629Z,49
2017-03-22T04:59:38.931Z,49.19
2017-03-22T05:00:11.181Z,49.29
2017-03-22T05:00:43.427Z,49
2017-03-22T05:01:15.701Z,49.19
2017-03-22T05:01:47.956Z,49.38
2017-03-22T05:02:20.259Z,48.8
2017-03-22T05:02:52.565Z,49.19
2017-03-22T05:03:24.887Z,49.19
2017-03-22T05:03:57.228Z,49.19
2017-03-22T05:04:29.529Z,49.29
2017-03-22T05:05:01.852Z,49.29
2017-03-22T05:05:34.166Z,49.19
2017-03-22T05:06:06.464Z,49.1
2017-03-22T05:06:38.766Z,49.29
2017-03-22T05:07:11.070Z,49.29
2017-03-22T05:07:43.381Z,49.38
2017-03-22T05:08:15.692Z,49.29
2017-03-22T05:08:48.019Z,48.9
2017-03-22T05:09:20.341Z,49
2017-03-22T05:09:52.661Z,48.9
2017-03-22T05:10:24.987Z,49.29
2017-03-22T05:10:57.291Z,49.29
2017-03-22T05:11:29.593Z,49.29
2017-03-22T05:12:01.893Z,49.29
2017-03-22T05:12:34.208Z,49.29
2017-03-22T05:13:06.527Z,49.29
2017-03-22T05:13:38.830Z,49.29
2017-03-22T05:14:11.135Z,49
2017-03-22T05:14:43.442Z,49
2017-03-22T05:15:15.766Z,49.38
2017-03-22T05:15:48.085Z,49.1
2017-03-22T05:16:20.402Z,49.1
2017-03-22T05:16:52.716Z,49.38
2017-03-22T05:17:25.033Z,49.1
2017-03-22T05:17:57.356Z,49.1
2017-03-22T05:18:29.658Z,48.9
2017-03-22T05:19:01.966Z,49.19
2017-03-22T05:19:34.290Z,49.19
2017-03-22T05:20:06.609Z,48.9
2017-03-22T05:20:38.909Z,49.29
2017-03-22T05:21:11.209Z,49.19
2017-03-22T05:21:43.518Z,49
2017-03-22T05:22:15.837Z,49.29
2017-03-22T05:22:48.127Z,48.71
2017-03-22T05:23:20.436Z,49.29
2017-03-22T05:23:52.735Z,49.29
2017-03-22T05:24:25.034Z,48.9
2017-03-22T05:24:57.356Z,48.88
2017-03-22T05:25:29.669Z,48.9
2017-03-22T05:26:01.986Z,49.07
2017-03-22T05:26:34.292Z,49.07
2017-03-22T05:27:06.641Z,49.1
2017-03-22T05:27:38.959Z,49.07
2017-03-22T05:28:11.297Z,49.07
2017-03-22T05:28:43.602Z,49.07
2017-03-22T05:29:15.927Z,48.9
2017-03-22T05:29:48.243Z,49.19
2017-03-22T05:30:20.564Z,49.1
2017-03-22T05:30:52.865Z,48.97
2017-03-22T05:31:25.151Z,48.88
2017-03-22T05:31:57.448Z,49.16
2017-03-22T05:32:29.743Z,48.9
2017-03-22T05:33:02.054Z,49.19
2017-03-22T05:33:34.368Z,49
2017-03-22T05:34:06.666Z,49
2017-03-22T05:34:38.978Z,49.19
2017-03-22T05:35:11.295Z,48.9
2017-03-22T05:35:43.597Z,49.1
2017-03-22T05:36:15.898Z,48.8
2017-03-22T05:36:48.205Z,49.19
2017-03-22T05:37:20.514Z,49.48
2017-03-22T05:37:52.817Z,48.9
2017-03-22T05:38:25.132Z,48.9
2017-03-22T05:38:57.458Z,48.9
2017-03-22T05:39:29.767Z,49
2017-03-22T05:40:02.062Z,49.29
2017-03-22T05:40:34.369Z,48.9
2017-03-22T05:41:06.679Z,48.9
2017-03-22T05:41:38.976Z,49.29
2017-03-22T05:42:11.278Z,49
2017-03-22T05:42:43.578Z,49.1
2017-03-22T05:43:15.898Z,49.29
2017-03-22T05:43:48.211Z,48.8
2017-03-22T05:44:20.517Z,49
2017-03-22T05:44:52.837Z,48.8
2017-03-22T05:45:25.153Z,48.9
2017-03-22T05:45:57.458Z,48.8
2017-03-22T05:46:29.764Z,48.8
2017-03-22T05:47:02.063Z,48.9
2017-03-22T05:47:34.378Z,49.19
2017-03-22T05:48:06.694Z,48.9
2017-03-22T05:48:39.029Z,49.1
2017-03-22T05:49:11.352Z,48.8
2017-03-22T05:49:43.722Z,48.8
2017-03-22T05:50:16.032Z,48.9
2017-03-22T05:50:48.333Z,48.71
2017-03-22T05:51:20.647Z,48.9
2017-03-22T05:51:52.958Z,48.8
2017-03-22T05:52:25.257Z,49
2017-03-22T05:52:57.559Z,48.9
2017-03-22T05:53:29.881Z,49
2017-03-22T05:54:02.210Z,48.9
2017-03-22T05:54:34.521Z,48.71
2017-03-22T05:55:06.828Z,48.9
2017-03-22T05:55:39.166Z,48.52
2017-03-22T05:56:11.479Z,48.61
2017-03-22T05:56:43.825Z,48.8
2017-03-22T05:57:16.122Z,48.9
2017-03-22T05:57:48.440Z,48.9
2017-03-22T05:58:20.763Z,48.74
2017-03-22T05:58:53.056Z,49
2017-03-22T05:59:25.382Z,48.61
2017-03-22T05:59:57.695Z,48.61
2017-03-22T06:00:30.027Z,48.61
2017-03-22T06:01:02.355Z,48.83
2017-03-22T06:01:34.668Z,48.61
2017-03-22T06:02:06.965Z,48.54
2017-03-22T06:02:39.239Z,48.8
2017-03-22T06:03:11.523Z,48.64
2017-03-22T06:03:43.777Z,48.64
2017-03-22T06:04:16.033Z,48.83
2017-03-22T06:04:48.291Z,48.74
2017-03-22T06:05:20.549Z,48.74
2017-03-22T06:05:53.759Z,48.54
2017-03-22T06:06:25.998Z,48.74
2017-03-22T06:06:58.857Z,48.64
2017-03-22T06:07:31.094Z,48.74
2017-03-22T06:08:03.359Z,48.64
2017-03-22T06:08:35.612Z,48.64
2017-03-22T06:09:07.873Z,48.54
2017-03-22T06:09:40.144Z,48.64
2017-03-22T06:10:12.422Z,48.54
2017-03-22T06:10:44.674Z,48.83
2017-03-22T06:11:16.995Z,48.54
2017-03-22T06:11:49.258Z,48.74
2017-03-22T06:12:21.576Z,48.64
2017-03-22T06:12:53.891Z,48.74
2017-03-22T06:13:26.223Z,48.64
2017-03-22T06:13:58.551Z,48.44
2017-03-22T06:14:30.877Z,48.74
2017-03-22T06:15:03.173Z,48.54
2017-03-22T06:15:35.477Z,48.44
2017-03-22T06:16:07.782Z,48.54
2017-03-22T06:16:40.090Z,48.64
2017-03-22T06:17:12.395Z,48.64
2017-03-22T06:17:44.710Z,48.44
2017-03-22T06:18:17.038Z,48.54
2017-03-22T06:18:49.342Z,48.35
2017-03-22T06:19:21.639Z,48.35
2017-03-22T06:19:53.939Z,48.64
2017-03-22T06:20:26.253Z,48.25
2017-03-22T06:20:58.554Z,48.35
2017-03-22T06:21:30.883Z,48.64
2017-03-22T06:22:03.185Z,48.44
2017-03-22T06:22:35.498Z,48.64
2017-03-22T06:23:07.800Z,48.35
2017-03-22T06:23:40.121Z,48.54
2017-03-22T06:24:12.445Z,48.44
2017-03-22T06:24:44.775Z,48.35
2017-03-22T06:25:17.093Z,48.44
2017-03-22T06:25:49.401Z,48.54
2017-03-22T06:26:21.716Z,48.54
2017-03-22T06:26:54.034Z,48.35
2017-03-22T06:27:26.355Z,48.64
2017-03-22T06:27:58.666Z,48.35
2017-03-22T06:28:30.967Z,48.35
2017-03-22T06:29:03.274Z,48.35
2017-03-22T06:29:35.595Z,48.16
2017-03-22T06:30:07.912Z,48.16
2017-03-22T06:30:40.242Z,48.44
2017-03-22T06:31:12.539Z,48.16
2017-03-22T06:31:44.840Z,48.47
2017-03-22T06:32:17.936Z,48.25
2017-03-22T06:32:50.273Z,48.25
2017-03-22T06:33:22.527Z,48.25
2017-03-22T06:33:55.302Z,48.25
2017-03-22T06:34:27.580Z,48.35
2017-03-22T06:34:59.856Z,48.38
2017-03-22T06:35:32.130Z,48.09
2017-03-22T06:36:04.379Z,48.38
2017-03-22T06:36:36.632Z,48.38
2017-03-22T06:37:09.820Z,48.47
2017-03-22T06:37:42.101Z,48.47
2017-03-22T06:38:14.360Z,48.18
2017-03-22T06:38:46.610Z,48.28
2017-03-22T06:39:18.915Z,48.18
2017-03-22T06:39:51.183Z,48.38
2017-03-22T06:40:24.327Z,48.09
2017-03-22T06:40:56.583Z,48.09
2017-03-22T06:41:28.830Z,48.28
2017-03-22T06:42:01.090Z,47.99
2017-03-22T06:42:33.406Z,48.18
2017-03-22T06:43:05.716Z,48.09
2017-03-22T06:43:38.039Z,48.09
2017-03-22T06:44:10.381Z,48.18
2017-03-22T06:44:42.714Z,48.18
2017-03-22T06:45:15.021Z,48.28
2017-03-22T06:45:47.337Z,48.09
2017-03-22T06:46:19.643Z,48.09
2017-03-22T06:46:51.949Z,48.09
2017-03-22T06:47:24.248Z,48.09
2017-03-22T06:47:56.586Z,48.18
2017-03-22T06:48:28.899Z,48.09
2017-03-22T06:49:01.212Z,48.18
2017-03-22T06:49:34.397Z,48.09
2017-03-22T06:50:06.724Z,48.09
2017-03-22T06:50:39.047Z,48.09
2017-03-22T06:51:11.352Z,48.09
2017-03-22T06:51:43.690Z,48.09
2017-03-22T06:52:16.113Z,48.18
2017-03-22T06:52:48.417Z,48.09
2017-03-22T06:53:20.734Z,47.89
2017-03-22T06:53:53.080Z,48.02
2017-03-22T06:54:25.641Z,48.02
2017-03-22T06:54:59.921Z,47.92
2017-03-22T06:55:32.250Z,47.99
2017-03-22T06:56:05.377Z,48.02
2017-03-22T06:56:37.717Z,48.02
2017-03-22T06:57:11.310Z,47.82
2017-03-22T06:57:43.660Z,47.92
2017-03-22T06:58:16.939Z,47.92